Lahij, Yemen
Current Conditions -  °F | °C
As of 1:00 AM on Saturday 20 Dec 2014 (Local Time) from OYAA Reporting Station
Scattered Clouds Scattered Clouds  
Wind Chill: 79°   Ceiling: Unl
Heat Index: 81°   Visibility: 6mi
Dew Point: 70°   Wind: 14mph
Humidity: 74%   Direction: 100°E
Pressure: 30.06"   Gusts: NA
Location:  13.06°N, 44.88°E
Report Text: OYAA 192200Z 10012KT 9999 SCT018 26/21 Q1018
Loading
Personal Weather Stations






























Interactive Weather Map New forecast layout! Learn more

10-Day Weather Forecast

Advertisements
Track Severe Weather on mobile